createdAt,value
2019-05-28T00:00:06.374Z,17.00
2019-05-28T00:02:34.784Z,17.00
2019-05-28T00:05:06.477Z,16.90
2019-05-28T00:07:34.896Z,16.90
2019-05-28T00:10:04.273Z,16.90
2019-05-28T00:12:33.417Z,16.80
2019-05-28T00:15:01.848Z,16.80
2019-05-28T00:17:30.331Z,16.70
2019-05-28T00:19:58.821Z,16.70
2019-05-28T00:22:27.323Z,16.70
2019-05-28T00:24:55.731Z,16.60
2019-05-28T00:27:24.176Z,16.60
2019-05-28T00:29:52.570Z,16.60
2019-05-28T00:32:20.974Z,16.60
2019-05-28T00:34:49.415Z,16.50
2019-05-28T00:37:17.840Z,16.50
2019-05-28T00:39:46.375Z,16.50
2019-05-28T00:42:14.772Z,16.50
2019-05-28T00:44:43.309Z,16.50
2019-05-28T00:47:11.745Z,16.50
2019-05-28T00:49:40.161Z,16.40
2019-05-28T00:52:08.578Z,16.40
2019-05-28T00:54:37.647Z,16.30
2019-05-28T00:57:06.214Z,16.30
2019-05-28T00:59:35.468Z,16.30
2019-05-28T01:02:03.966Z,16.30
2019-05-28T01:04:32.374Z,16.20
2019-05-28T01:07:01.621Z,16.20
2019-05-28T01:09:30.026Z,16.20
2019-05-28T01:11:58.433Z,16.10
2019-05-28T01:14:27.798Z,16.10
2019-05-28T01:16:56.261Z,16.10
2019-05-28T01:19:25.610Z,16.10
2019-05-28T01:21:54.001Z,16.10
2019-05-28T01:24:22.433Z,16.00
2019-05-28T01:26:51.075Z,16.00
2019-05-28T01:29:19.486Z,16.00
2019-05-28T01:31:48.590Z,16.00
2019-05-28T01:34:16.991Z,15.90
2019-05-28T01:36:45.406Z,16.00
2019-05-28T01:39:13.827Z,15.90
2019-05-28T01:41:42.234Z,15.90
2019-05-28T01:44:11.686Z,15.90
2019-05-28T01:46:40.097Z,15.90
2019-05-28T01:49:08.508Z,15.80
2019-05-28T01:51:36.925Z,15.90
2019-05-28T01:54:05.333Z,15.80
2019-05-28T01:56:33.754Z,15.80
2019-05-28T01:59:02.174Z,15.80
2019-05-28T02:01:30.577Z,15.80
2019-05-28T02:03:58.983Z,15.70
2019-05-28T02:06:27.467Z,15.70
2019-05-28T02:08:55.886Z,15.70
2019-05-28T02:11:24.308Z,15.70
2019-05-28T02:13:52.792Z,15.70
2019-05-28T02:16:21.204Z,15.60
2019-05-28T02:18:49.639Z,15.60
2019-05-28T02:21:18.050Z,15.60
2019-05-28T02:23:46.524Z,15.60
2019-05-28T02:26:15.003Z,15.60
2019-05-28T02:28:43.405Z,15.50
2019-05-28T02:31:24.984Z,15.50
2019-05-28T02:33:41.949Z,15.50
2019-05-28T02:36:10.346Z,15.50
2019-05-28T02:38:38.761Z,15.50
2019-05-28T02:41:07.192Z,15.50
2019-05-28T02:43:35.663Z,15.40
2019-05-28T02:46:04.181Z,15.40
2019-05-28T02:48:32.607Z,15.40
2019-05-28T02:51:01.460Z,15.40
2019-05-28T02:53:31.621Z,15.40
2019-05-28T02:56:00.273Z,15.40
2019-05-28T02:58:34.269Z,15.40
2019-05-28T03:01:04.958Z,15.40
2019-05-28T03:03:33.428Z,15.40
2019-05-28T03:06:01.846Z,15.40
2019-05-28T03:08:30.764Z,15.40
2019-05-28T03:11:03.555Z,15.40
2019-05-28T03:13:29.691Z,15.40
2019-05-28T03:16:01.331Z,15.30
2019-05-28T03:18:32.084Z,15.30
2019-05-28T03:21:02.137Z,15.30
2019-05-28T03:23:33.161Z,15.30
2019-05-28T03:26:01.585Z,15.20
2019-05-28T03:28:30.103Z,15.20
2019-05-28T03:30:58.504Z,15.20
2019-05-28T03:33:26.916Z,15.20
2019-05-28T03:35:57.150Z,15.20
2019-05-28T03:38:26.243Z,15.20
2019-05-28T03:40:56.730Z,15.10
2019-05-28T03:43:24.909Z,15.10
2019-05-28T03:45:53.300Z,15.10
2019-05-28T03:48:22.031Z,15.10
2019-05-28T03:50:50.457Z,15.10
2019-05-28T03:53:18.967Z,15.10
2019-05-28T03:55:47.392Z,15.10
2019-05-28T03:58:16.294Z,15.10
2019-05-28T04:00:44.750Z,15.00
2019-05-28T04:03:13.176Z,15.00
2019-05-28T04:05:41.582Z,15.00
2019-05-28T04:08:10.407Z,15.00
2019-05-28T04:10:39.079Z,14.90
2019-05-28T04:13:07.717Z,14.90
2019-05-28T04:15:36.119Z,14.90
2019-05-28T04:18:04.735Z,14.90
2019-05-28T04:20:33.246Z,14.90
2019-05-28T04:23:03.193Z,14.90
2019-05-28T04:25:31.574Z,14.90
2019-05-28T04:27:59.974Z,14.90
2019-05-28T04:30:28.613Z,14.90
2019-05-28T04:32:57.032Z,14.90
2019-05-28T04:35:25.441Z,15.00
2019-05-28T04:37:53.826Z,14.90
2019-05-28T04:40:22.242Z,14.90
2019-05-28T04:42:50.662Z,14.90
2019-05-28T04:45:19.149Z,14.90
2019-05-28T04:47:54.948Z,14.90
2019-05-28T04:50:23.414Z,14.90
2019-05-28T04:52:53.218Z,14.90
2019-05-28T04:55:21.750Z,14.90
2019-05-28T04:57:50.187Z,14.90
2019-05-28T05:00:19.178Z,14.90
2019-05-28T05:02:58.767Z,14.90
2019-05-28T05:05:18.799Z,14.90
2019-05-28T05:07:47.244Z,15.00
2019-05-28T05:10:19.043Z,15.00
2019-05-28T05:12:46.044Z,15.00
2019-05-28T05:15:17.519Z,15.00
2019-05-28T05:17:46.119Z,15.00
2019-05-28T05:20:14.828Z,15.00
2019-05-28T05:22:43.266Z,15.00
2019-05-28T05:25:12.019Z,15.10
2019-05-28T05:27:40.504Z,15.10
2019-05-28T05:30:09.051Z,15.20
2019-05-28T05:32:37.430Z,15.20
2019-05-28T05:35:06.134Z,15.30
2019-05-28T05:37:34.675Z,15.30
2019-05-28T05:40:04.149Z,15.30
2019-05-28T05:42:32.615Z,15.40
2019-05-28T05:45:02.576Z,15.40
2019-05-28T05:47:31.451Z,15.50
2019-05-28T05:49:59.898Z,15.60
2019-05-28T05:52:28.394Z,15.60
2019-05-28T05:54:56.803Z,15.70
2019-05-28T05:57:25.338Z,15.80
2019-05-28T05:59:53.753Z,15.90
2019-05-28T06:02:22.146Z,16.00
2019-05-28T06:04:50.901Z,16.10
2019-05-28T06:07:19.370Z,16.20
2019-05-28T06:09:51.185Z,16.40
2019-05-28T06:12:19.812Z,16.50
2019-05-28T06:14:48.290Z,16.60
2019-05-28T06:17:19.643Z,16.60
2019-05-28T06:19:48.223Z,16.70
2019-05-28T06:22:16.698Z,16.70
2019-05-28T06:24:47.935Z,16.60
2019-05-28T06:27:19.278Z,16.60
2019-05-28T06:29:46.569Z,16.70
2019-05-28T06:32:15.817Z,16.70
2019-05-28T06:34:44.257Z,16.70
2019-05-28T06:37:12.666Z,16.80
2019-05-28T06:39:41.102Z,16.80
2019-05-28T06:42:09.526Z,16.80
2019-05-28T06:44:37.913Z,16.70
2019-05-28T06:47:06.629Z,16.70
2019-05-28T06:49:35.101Z,16.70
2019-05-28T06:52:03.597Z,16.70
2019-05-28T06:54:31.992Z,16.70
2019-05-28T06:57:00.816Z,16.70
2019-05-28T06:59:29.241Z,16.70
2019-05-28T07:02:00.113Z,16.70
2019-05-28T07:04:32.654Z,16.80
2019-05-28T07:06:59.254Z,17.00
2019-05-28T07:09:27.682Z,17.10
2019-05-28T07:11:56.092Z,17.30
2019-05-28T07:14:24.534Z,17.40
2019-05-28T07:16:53.920Z,17.60
2019-05-28T07:19:24.985Z,17.70
2019-05-28T07:21:52.662Z,17.80
2019-05-28T07:24:21.142Z,17.70
2019-05-28T07:26:50.011Z,17.80
2019-05-28T07:29:18.495Z,17.80
2019-05-28T07:31:47.163Z,17.90
2019-05-28T07:34:29.742Z,18.10
2019-05-28T07:36:45.712Z,18.20
2019-05-28T07:39:14.130Z,18.20
2019-05-28T07:41:42.635Z,18.20
2019-05-28T07:44:11.021Z,18.20
2019-05-28T07:46:39.720Z,18.30
2019-05-28T07:49:08.255Z,18.30
2019-05-28T07:51:36.741Z,18.40
2019-05-28T07:54:05.225Z,18.40
2019-05-28T07:56:33.638Z,18.50
2019-05-28T07:59:02.054Z,18.50
2019-05-28T08:01:30.487Z,18.50
2019-05-28T08:03:58.967Z,18.50
2019-05-28T08:06:27.387Z,18.50
2019-05-28T08:08:55.987Z,18.50
2019-05-28T08:11:24.903Z,18.40
2019-05-28T08:13:53.301Z,18.40
2019-05-28T08:16:24.418Z,18.40
2019-05-28T08:18:53.200Z,18.30
2019-05-28T08:21:22.051Z,18.20
2019-05-28T08:23:50.674Z,18.20
2019-05-28T08:26:19.171Z,18.20
2019-05-28T08:28:47.660Z,18.20
2019-05-28T08:31:20.320Z,18.40
2019-05-28T08:33:46.357Z,18.60
2019-05-28T08:36:14.988Z,18.80
2019-05-28T08:38:43.458Z,19.00
2019-05-28T08:41:12.007Z,19.20
2019-05-28T08:43:40.522Z,19.30
2019-05-28T08:46:09.001Z,19.40
2019-05-28T08:48:37.452Z,19.50
2019-05-28T08:51:09.525Z,19.60
2019-05-28T08:53:36.142Z,19.50
2019-05-28T08:56:04.693Z,19.50
2019-05-28T08:58:33.195Z,19.50
2019-05-28T09:01:01.828Z,19.60
2019-05-28T09:03:30.345Z,19.80
2019-05-28T09:05:58.795Z,20.00
2019-05-28T09:08:38.417Z,20.30
2019-05-28T09:10:57.932Z,20.60
2019-05-28T09:13:26.466Z,20.80
2019-05-28T09:15:55.033Z,20.90
2019-05-28T09:18:23.754Z,20.80
2019-05-28T09:20:52.310Z,20.60
2019-05-28T09:23:20.862Z,20.40
